createdAt,value
2018-09-11T00:01:25.920Z,72.73
2018-09-11T00:03:53.860Z,73.23
2018-09-11T00:06:21.828Z,72.66
2018-09-11T00:08:50.001Z,72.84
2018-09-11T00:11:17.936Z,73.76
2018-09-11T00:13:45.998Z,73.53
2018-09-11T00:16:14.023Z,74.03
2018-09-11T00:18:47.017Z,74.11
2018-09-11T00:21:14.917Z,75.05
2018-09-11T00:23:42.901Z,74.72
2018-09-11T00:26:11.011Z,74.56
2018-09-11T00:28:38.998Z,75.24
2018-09-11T00:31:06.973Z,74.42
2018-09-11T00:33:36.060Z,75.34
2018-09-11T00:36:04.021Z,75.05
2018-09-11T00:38:31.973Z,74.55
2018-09-11T00:40:59.962Z,74.67
2018-09-11T00:43:28.063Z,75.07
2018-09-11T00:45:56.020Z,75.02
2018-09-11T00:48:24.014Z,74.11
2018-09-11T00:50:52.103Z,73.78
2018-09-11T00:53:19.975Z,73.99
2018-09-11T00:55:48.361Z,73.85
2018-09-11T00:58:16.370Z,75.76
2018-09-11T01:00:44.338Z,76.37
2018-09-11T01:03:12.325Z,75.42
2018-09-11T01:05:40.873Z,75.69
2018-09-11T01:08:08.850Z,75.27
2018-09-11T01:10:36.758Z,74.67
2018-09-11T01:13:04.698Z,75.28
2018-09-11T01:15:32.604Z,75.66
2018-09-11T01:18:00.504Z,76.37
2018-09-11T01:20:28.497Z,76.15
2018-09-11T01:22:56.452Z,76.63
2018-09-11T01:25:24.409Z,76.37
2018-09-11T01:27:52.566Z,76.65
2018-09-11T01:30:21.896Z,76.10
2018-09-11T01:32:50.770Z,75.17
2018-09-11T01:35:18.820Z,73.83
2018-09-11T01:37:47.024Z,74.00
2018-09-11T01:40:14.941Z,73.88
2018-09-11T01:42:42.893Z,74.95
2018-09-11T01:45:10.802Z,74.37
2018-09-11T01:47:38.831Z,74.32
2018-09-11T01:50:06.952Z,74.22
2018-09-11T01:52:34.834Z,73.84
2018-09-11T01:55:02.838Z,74.16
2018-09-11T01:57:30.829Z,74.01
2018-09-11T01:59:58.797Z,74.95
2018-09-11T02:02:26.819Z,75.44
2018-09-11T02:04:54.936Z,75.77
2018-09-11T02:07:22.874Z,76.60
2018-09-11T02:09:50.866Z,75.59
2018-09-11T02:12:18.844Z,75.26
2018-09-11T02:14:46.955Z,75.12
2018-09-11T02:17:15.016Z,75.34
2018-09-11T02:19:43.276Z,75.74
2018-09-11T02:22:11.263Z,75.87
2018-09-11T02:24:39.298Z,76.09
2018-09-11T02:27:07.022Z,76.62
2018-09-11T02:29:34.993Z,76.63
2018-09-11T02:32:02.987Z,77.00
2018-09-11T02:34:30.958Z,77.36
2018-09-11T02:36:58.919Z,76.74
2018-09-11T02:39:26.885Z,76.82
2018-09-11T02:41:54.910Z,75.08
2018-09-11T02:44:22.839Z,75.08
2018-09-11T02:46:50.794Z,75.40
2018-09-11T02:49:18.777Z,75.55
2018-09-11T02:51:46.803Z,74.67
2018-09-11T02:54:14.666Z,73.28
2018-09-11T02:56:42.701Z,72.73
2018-09-11T02:59:10.616Z,72.62
2018-09-11T03:01:38.527Z,73.71
2018-09-11T03:04:06.411Z,74.83
2018-09-11T03:06:34.866Z,74.74
2018-09-11T03:09:03.483Z,73.34
2018-09-11T03:11:31.477Z,73.38
2018-09-11T03:13:59.386Z,72.65
2018-09-11T03:16:28.408Z,71.69
2018-09-11T03:18:57.323Z,70.45
2018-09-11T03:21:25.796Z,69.33
2018-09-11T03:23:53.691Z,68.83
2018-09-11T03:26:21.771Z,67.75
2018-09-11T03:28:49.812Z,67.62
2018-09-11T03:31:17.745Z,68.11
2018-09-11T03:33:45.760Z,67.64
2018-09-11T03:36:13.683Z,67.57
2018-09-11T03:38:41.658Z,66.56
2018-09-11T03:41:09.548Z,66.83
2018-09-11T03:43:37.475Z,66.33
2018-09-11T03:46:05.510Z,65.99
2018-09-11T03:48:33.511Z,65.64
2018-09-11T03:51:01.486Z,65.32
2018-09-11T03:53:29.427Z,63.97
2018-09-11T03:55:57.482Z,63.00
2018-09-11T03:58:25.462Z,62.08
2018-09-11T04:00:53.408Z,62.00
2018-09-11T04:03:21.335Z,60.79
2018-09-11T04:05:49.267Z,60.80
2018-09-11T04:08:18.122Z,61.19
2018-09-11T04:10:45.992Z,61.18
2018-09-11T04:13:14.038Z,61.17
2018-09-11T04:15:41.967Z,62.06
2018-09-11T04:18:09.843Z,62.47
2018-09-11T04:20:37.862Z,62.75
2018-09-11T04:23:05.941Z,62.67
2018-09-11T04:25:33.907Z,64.43
2018-09-11T04:28:01.806Z,70.79
2018-09-11T04:30:29.816Z,74.08
2018-09-11T04:32:57.733Z,75.69
2018-09-11T04:35:25.679Z,76.42
2018-09-11T04:37:53.533Z,76.53
2018-09-11T04:40:21.635Z,76.25
2018-09-11T04:42:49.606Z,76.22
2018-09-11T04:45:17.471Z,76.05
2018-09-11T04:47:45.477Z,77.01
2018-09-11T04:50:13.410Z,77.33
2018-09-11T04:52:41.330Z,77.08
2018-09-11T04:55:09.205Z,77.50
2018-09-11T04:57:37.226Z,77.00
2018-09-11T05:00:05.317Z,78.00
2018-09-11T05:02:33.267Z,77.33
2018-09-11T05:05:01.161Z,76.47
2018-09-11T05:07:29.225Z,77.11
2018-09-11T05:09:57.093Z,75.71
2018-09-11T05:12:25.126Z,75.60
2018-09-11T05:14:52.993Z,76.27
2018-09-11T05:17:20.891Z,75.51
2018-09-11T05:19:48.906Z,75.20
2018-09-11T05:22:16.907Z,74.93
2018-09-11T05:24:45.085Z,74.21
2018-09-11T05:27:13.210Z,75.17
2018-09-11T05:29:41.494Z,74.54
2018-09-11T05:32:09.803Z,74.37
2018-09-11T05:34:38.993Z,74.19
2018-09-11T05:37:06.974Z,73.28
2018-09-11T05:39:35.674Z,73.14
2018-09-11T05:42:03.775Z,72.31
2018-09-11T05:44:32.260Z,72.32
2018-09-11T05:47:00.397Z,69.98
2018-09-11T05:49:28.360Z,70.99
2018-09-11T05:51:56.497Z,70.51
2018-09-11T05:54:24.556Z,70.77
2018-09-11T05:56:52.494Z,70.07
2018-09-11T05:59:20.448Z,68.95
2018-09-11T06:01:48.714Z,67.98
2018-09-11T06:04:16.746Z,67.81
2018-09-11T06:06:44.696Z,68.40
2018-09-11T06:09:13.648Z,67.53
2018-09-11T06:11:41.813Z,64.70
2018-09-11T06:14:10.028Z,64.65
2018-09-11T06:16:37.943Z,64.43
2018-09-11T06:19:06.150Z,63.60
2018-09-11T06:21:34.236Z,63.67
2018-09-11T06:24:03.884Z,64.86
2018-09-11T06:26:34.173Z,65.04
2018-09-11T06:29:02.360Z,65.88
2018-09-11T06:31:30.584Z,64.08
2018-09-11T06:33:58.630Z,65.23
2018-09-11T06:36:27.243Z,62.86
2018-09-11T06:38:55.229Z,61.32
2018-09-11T06:41:24.270Z,60.64
2018-09-11T06:43:53.327Z,62.17
2018-09-11T06:46:21.353Z,59.49
2018-09-11T06:48:49.613Z,58.62
2018-09-11T06:51:19.503Z,57.71
2018-09-11T06:53:47.437Z,55.14
2018-09-11T06:56:15.532Z,54.75
2018-09-11T06:58:43.593Z,51.41
2018-09-11T07:01:13.686Z,51.69
2018-09-11T07:03:41.628Z,49.72
2018-09-11T07:06:09.683Z,49.97
2018-09-11T07:08:37.761Z,48.21
2018-09-11T07:11:06.100Z,49.24
2018-09-11T07:13:34.050Z,48.28
2018-09-11T07:16:09.274Z,47.76
2018-09-11T07:18:37.148Z,43.85
2018-09-11T07:21:05.102Z,41.54
2018-09-11T07:23:40.734Z,38.41
2018-09-11T07:26:09.288Z,36.34
2018-09-11T07:28:38.053Z,36.13
2018-09-11T07:31:06.408Z,35.80
2018-09-11T07:33:41.823Z,36.45
2018-09-11T07:36:10.808Z,38.32
2018-09-11T07:38:38.690Z,39.37
2018-09-11T07:41:07.354Z,39.71
2018-09-11T07:43:42.623Z,38.04
2018-09-11T07:46:12.566Z,38.22
2018-09-11T07:48:42.010Z,40.49
2018-09-11T07:51:10.108Z,39.75
2018-09-11T07:53:38.258Z,40.72
2018-09-11T07:56:07.137Z,40.80
2018-09-11T07:58:35.650Z,41.20
2018-09-11T08:01:03.907Z,41.02
2018-09-11T08:03:32.116Z,41.74
2018-09-11T08:06:00.163Z,42.36
2018-09-11T08:08:32.246Z,38.54
2018-09-11T08:11:02.401Z,37.17
2018-09-11T08:13:30.772Z,37.57
2018-09-11T08:15:58.828Z,37.71
2018-09-11T08:18:26.847Z,37.03
2018-09-11T08:20:54.879Z,38.05
2018-09-11T08:23:23.081Z,38.54
2018-09-11T08:25:51.032Z,36.51
2018-09-11T08:28:19.070Z,35.97
2018-09-11T08:30:54.159Z,35.18
2018-09-11T08:33:22.170Z,34.36
2018-09-11T08:35:50.228Z,35.58
2018-09-11T08:38:19.197Z,34.85
2018-09-11T08:40:47.296Z,34.52
2018-09-11T08:43:16.621Z,33.50
2018-09-11T08:45:45.263Z,32.12
2018-09-11T08:48:13.947Z,33.35
2018-09-11T08:50:42.071Z,33.14
2018-09-11T08:53:12.839Z,34.15
2018-09-11T08:55:42.120Z,35.61
2018-09-11T08:58:10.122Z,33.64
2018-09-11T09:00:38.159Z,32.61
2018-09-11T09:03:06.489Z,32.33
2018-09-11T09:05:34.491Z,34.68
2018-09-11T09:08:02.627Z,34.57
2018-09-11T09:10:31.823Z,33.70
2018-09-11T09:12:59.947Z,34.37
2018-09-11T09:15:29.147Z,33.16
2018-09-11T09:17:57.165Z,32.26
2018-09-11T09:20:25.998Z,34.23
2018-09-11T09:22:54.866Z,35.22
2018-09-11T09:25:23.704Z,36.25
2018-09-11T09:27:51.623Z,36.00
2018-09-11T09:30:19.535Z,34.90
2018-09-11T09:32:47.558Z,33.60
2018-09-11T09:35:15.576Z,32.05
2018-09-11T09:37:43.667Z,30.69
2018-09-11T09:40:11.747Z,32.02
2018-09-11T09:42:39.778Z,31.84
2018-09-11T09:45:08.830Z,31.76
2018-09-11T09:47:37.043Z,31.04
2018-09-11T09:50:05.319Z,32.54
2018-09-11T09:52:33.385Z,31.63
2018-09-11T09:55:01.421Z,33.63
2018-09-11T09:57:29.520Z,34.58
2018-09-11T09:59:57.496Z,33.00
2018-09-11T10:02:25.521Z,32.98
2018-09-11T10:05:06.389Z,32.79
2018-09-11T10:07:34.485Z,32.19
2018-09-11T10:10:03.613Z,31.39
2018-09-11T10:12:31.773Z,31.88
2018-09-11T10:14:59.874Z,34.90
2018-09-11T10:17:29.573Z,35.70
2018-09-11T10:19:57.526Z,35.70
2018-09-11T10:22:25.613Z,35.19
2018-09-11T10:24:53.698Z,33.54
2018-09-11T10:27:22.840Z,34.60
2018-09-11T10:29:52.030Z,34.04
2018-09-11T10:32:20.978Z,32.40
2018-09-11T10:34:49.072Z,31.74
2018-09-11T10:37:30.759Z,31.10
2018-09-11T10:39:58.737Z,30.34
2018-09-11T10:42:26.668Z,30.62
2018-09-11T10:44:55.456Z,30.07
2018-09-11T10:47:23.587Z,29.85
2018-09-11T10:49:51.588Z,30.51
2018-09-11T10:52:19.601Z,29.77
2018-09-11T10:54:47.760Z,30.63
2018-09-11T10:57:15.716Z,31.90
2018-09-11T10:59:44.416Z,33.36
2018-09-11T11:02:12.499Z,32.70
2018-09-11T11:04:42.433Z,32.80
2018-09-11T11:07:10.566Z,33.20
2018-09-11T11:09:39.383Z,33.46
2018-09-11T11:12:07.581Z,34.54
2018-09-11T11:14:35.640Z,33.05
2018-09-11T11:17:04.327Z,33.31
2018-09-11T11:22:07.703Z,33.08
2018-09-11T11:24:35.757Z,34.83
2018-09-11T11:27:03.888Z,33.93
2018-09-11T11:29:38.472Z,32.38
2018-09-11T11:32:07.903Z,32.28
2018-09-11T11:34:35.929Z,34.34
2018-09-11T11:37:03.967Z,33.42
2018-09-11T11:39:31.993Z,33.00
2018-09-11T11:42:01.199Z,32.72
2018-09-11T11:44:29.337Z,31.32
2018-09-11T11:46:57.401Z,31.80
2018-09-11T11:49:25.524Z,31.25
2018-09-11T11:51:53.593Z,30.85
2018-09-11T11:54:22.126Z,31.96
2018-09-11T11:56:50.004Z,30.35
2018-09-11T11:59:17.965Z,30.57
2018-09-11T12:01:46.166Z,29.28
2018-09-11T12:04:14.253Z,28.80
2018-09-11T12:06:42.243Z,27.15
2018-09-11T12:09:11.415Z,24.29
2018-09-11T12:11:39.624Z,24.73
2018-09-11T12:14:07.811Z,24.20
2018-09-11T12:16:35.847Z,24.47
2018-09-11T12:19:04.862Z,22.61
2018-09-11T12:21:32.804Z,24.84
2018-09-11T12:24:00.924Z,25.10
2018-09-11T12:26:28.837Z,23.93
2018-09-11T12:28:56.787Z,24.22
2018-09-11T12:31:24.810Z,25.14
2018-09-11T12:33:52.701Z,26.15
2018-09-11T12:36:20.637Z,25.32
2018-09-11T12:38:48.913Z,24.85
2018-09-11T12:41:16.958Z,25.90
2018-09-11T12:43:47.934Z,26.14
2018-09-11T12:46:16.392Z,26.10
2018-09-11T12:48:44.377Z,26.26
2018-09-11T12:51:12.375Z,25.20
2018-09-11T12:53:40.542Z,25.43
2018-09-11T12:56:08.713Z,25.12
2018-09-11T12:58:36.768Z,26.66
2018-09-11T13:01:04.930Z,27.15
2018-09-11T13:03:32.938Z,27.26
2018-09-11T13:06:01.308Z,27.60
2018-09-11T13:08:29.511Z,27.94
2018-09-11T13:10:57.593Z,29.27
2018-09-11T13:13:26.258Z,28.78
2018-09-11T13:15:54.261Z,29.66
2018-09-11T13:18:22.409Z,29.47
2018-09-11T13:20:50.327Z,29.46
2018-09-11T13:23:18.604Z,29.76
2018-09-11T13:25:46.664Z,29.10
2018-09-11T13:28:15.283Z,30.00
2018-09-11T13:30:43.301Z,29.73
2018-09-11T13:33:11.401Z,30.04
2018-09-11T13:35:39.298Z,29.61
2018-09-11T13:38:07.282Z,29.07
2018-09-11T13:40:35.322Z,28.61
2018-09-11T13:43:03.436Z,28.91
2018-09-11T13:45:31.422Z,29.76
2018-09-11T13:47:59.504Z,29.03
2018-09-11T13:50:27.487Z,29.65
2018-09-11T13:52:58.127Z,29.51
2018-09-11T13:55:26.143Z,29.49
2018-09-11T13:57:54.162Z,29.70
2018-09-11T14:00:22.253Z,29.71
2018-09-11T14:02:50.755Z,29.29
2018-09-11T14:05:19.457Z,29.08
2018-09-11T14:07:47.465Z,29.80
2018-09-11T14:10:15.542Z,29.55
2018-09-11T14:12:43.496Z,29.10
2018-09-11T14:15:11.462Z,29.20
2018-09-11T14:17:41.264Z,27.98
2018-09-11T14:20:09.244Z,28.69
2018-09-11T14:22:37.873Z,29.56
2018-09-11T14:25:06.126Z,29.28
2018-09-11T14:27:34.585Z,29.58
2018-09-11T14:30:02.778Z,29.11
2018-09-11T14:32:30.977Z,28.09
2018-09-11T14:34:58.949Z,30.27
2018-09-11T14:37:26.900Z,31.38
2018-09-11T14:39:54.937Z,33.50
2018-09-11T14:42:22.931Z,34.89
2018-09-11T14:44:51.336Z,35.51
2018-09-11T14:47:19.242Z,35.84
2018-09-11T14:49:47.470Z,36.02
2018-09-11T14:52:15.638Z,36.81
2018-09-11T14:54:43.835Z,36.63
2018-09-11T14:57:11.997Z,36.61
2018-09-11T14:59:40.920Z,36.32
2018-09-11T15:02:08.910Z,36.16
2018-09-11T15:04:36.882Z,35.74
2018-09-11T15:07:05.060Z,35.57
2018-09-11T15:09:33.059Z,35.92
2018-09-11T15:12:02.177Z,36.16
2018-09-11T15:14:32.983Z,36.74
2018-09-11T15:17:00.967Z,37.49
2018-09-11T15:19:28.920Z,37.22
2018-09-11T15:21:57.457Z,38.05
2018-09-11T15:24:25.566Z,38.66
2018-09-11T15:26:54.622Z,38.80
2018-09-11T15:29:22.638Z,38.53
2018-09-11T15:31:50.691Z,38.59
2018-09-11T15:34:18.827Z,38.17
2018-09-11T15:36:46.921Z,37.43
2018-09-11T15:39:14.972Z,37.88
2018-09-11T15:41:43.012Z,39.33
2018-09-11T15:44:11.012Z,38.98
2018-09-11T15:46:38.947Z,38.43
2018-09-11T15:49:06.927Z,38.38
2018-09-11T15:51:34.951Z,38.31
2018-09-11T15:54:02.963Z,39.86
2018-09-11T15:56:31.789Z,39.78
2018-09-11T15:58:59.789Z,39.89
2018-09-11T16:01:27.750Z,40.08
2018-09-11T16:03:55.711Z,41.27
2018-09-11T16:06:23.708Z,40.98
2018-09-11T16:08:51.603Z,41.75
2018-09-11T16:11:19.642Z,41.51
2018-09-11T16:13:47.630Z,42.41
2018-09-11T16:16:15.568Z,42.18
2018-09-11T16:18:43.743Z,41.86
2018-09-11T16:21:11.821Z,42.27
2018-09-11T16:23:40.074Z,42.67
2018-09-11T16:26:08.048Z,43.08
2018-09-11T16:28:36.078Z,43.24
2018-09-11T16:31:04.397Z,42.61
2018-09-11T16:33:32.368Z,42.99
2018-09-11T16:36:00.610Z,43.75
2018-09-11T16:38:29.582Z,44.06
2018-09-11T16:40:57.514Z,44.63
2018-09-11T16:43:25.539Z,44.40
2018-09-11T16:45:53.632Z,44.62
2018-09-11T16:48:22.375Z,44.34
2018-09-11T16:50:50.434Z,44.83
2018-09-11T16:53:18.417Z,44.50
2018-09-11T16:55:46.347Z,44.59
2018-09-11T16:58:14.414Z,42.66
2018-09-11T17:00:42.463Z,42.52
2018-09-11T17:03:10.471Z,43.09
2018-09-11T17:05:38.471Z,41.36
2018-09-11T17:08:07.198Z,41.69
2018-09-11T17:10:35.901Z,41.60
2018-09-11T17:13:04.202Z,41.82
2018-09-11T17:15:32.246Z,41.25
2018-09-11T17:18:00.182Z,41.72
2018-09-11T17:20:28.197Z,41.24
2018-09-11T17:22:56.166Z,41.37
2018-09-11T17:25:24.190Z,42.22
2018-09-11T17:27:52.248Z,42.29
2018-09-11T17:30:20.226Z,42.74
2018-09-11T17:32:48.211Z,43.46
2018-09-11T17:35:16.091Z,43.59
2018-09-11T17:37:44.046Z,43.61
2018-09-11T17:40:12.049Z,43.62
2018-09-11T17:42:40.146Z,43.81
2018-09-11T17:45:08.143Z,44.67
2018-09-11T17:47:36.166Z,44.82
2018-09-11T17:50:04.437Z,45.09
2018-09-11T17:52:32.535Z,44.76
2018-09-11T17:55:00.426Z,44.97
2018-09-11T17:57:28.376Z,45.01
2018-09-11T17:59:56.347Z,45.07
2018-09-11T18:02:24.339Z,45.38
2018-09-11T18:04:52.267Z,45.56
2018-09-11T18:07:20.223Z,44.86
2018-09-11T18:09:49.183Z,44.60
2018-09-11T18:12:17.166Z,45.09
2018-09-11T18:14:45.553Z,44.63
2018-09-11T18:17:13.581Z,45.11
2018-09-11T18:19:41.732Z,45.48
2018-09-11T18:22:09.744Z,45.06
2018-09-11T18:24:37.843Z,45.66
2018-09-11T18:27:07.512Z,46.63
2018-09-11T18:29:35.530Z,46.60
2018-09-11T18:32:03.588Z,45.99
2018-09-11T18:34:31.598Z,45.17
2018-09-11T18:36:59.528Z,46.26
2018-09-11T18:39:28.073Z,45.24
2018-09-11T18:41:56.030Z,46.12
2018-09-11T18:44:23.963Z,45.63
2018-09-11T18:46:51.912Z,45.32
2018-09-11T18:49:19.877Z,45.84
2018-09-11T18:51:47.902Z,45.32
2018-09-11T18:54:15.878Z,45.81
2018-09-11T18:56:43.906Z,45.59
2018-09-11T18:59:11.856Z,45.89
2018-09-11T19:01:39.785Z,46.07
2018-09-11T19:04:07.673Z,46.13
2018-09-11T19:06:35.667Z,46.48
2018-09-11T19:09:04.846Z,45.86
2018-09-11T19:11:32.834Z,45.71
2018-09-11T19:14:01.068Z,45.39
2018-09-11T19:16:29.112Z,45.72
2018-09-11T19:18:56.994Z,45.60
2018-09-11T19:21:24.922Z,46.14
2018-09-11T19:23:52.799Z,45.69
2018-09-11T19:26:20.797Z,46.30
2018-09-11T19:28:49.133Z,45.37
2018-09-11T19:31:17.036Z,45.48
2018-09-11T19:33:47.898Z,45.81
2018-09-11T19:36:15.798Z,45.48
2018-09-11T19:38:43.723Z,45.68
2018-09-11T19:41:11.718Z,45.87
2018-09-11T19:43:39.603Z,45.98
2018-09-11T19:46:07.523Z,45.58
2018-09-11T19:48:35.775Z,45.36
2018-09-11T19:51:03.759Z,45.70
2018-09-11T19:53:31.776Z,46.14
2018-09-11T19:55:59.944Z,45.37
2018-09-11T19:58:27.938Z,45.45
2018-09-11T20:00:55.864Z,45.93
2018-09-11T20:03:23.815Z,45.52
2018-09-11T20:05:51.790Z,46.01
2018-09-11T20:08:20.005Z,46.50
2018-09-11T20:10:48.072Z,47.72
2018-09-11T20:13:16.112Z,49.67
2018-09-11T20:15:44.054Z,51.06
2018-09-11T20:18:12.102Z,51.56
2018-09-11T20:20:40.009Z,52.09
2018-09-11T20:23:08.004Z,52.35
2018-09-11T20:25:36.099Z,52.04
2018-09-11T20:28:04.103Z,53.02
2018-09-11T20:30:32.014Z,53.74
2018-09-11T20:32:59.925Z,54.29
2018-09-11T20:35:28.046Z,54.27
2018-09-11T20:37:55.982Z,55.11
2018-09-11T20:40:24.125Z,55.24
2018-09-11T20:42:52.056Z,54.33
2018-09-11T20:45:20.098Z,54.62
2018-09-11T20:47:48.062Z,54.61
2018-09-11T20:50:16.124Z,54.30
2018-09-11T20:52:44.156Z,54.84
2018-09-11T20:55:12.250Z,54.51
2018-09-11T20:57:40.206Z,53.54
2018-09-11T21:00:08.129Z,53.79
2018-09-11T21:02:36.126Z,53.81
2018-09-11T21:05:04.303Z,53.94
2018-09-11T21:07:34.380Z,54.43
2018-09-11T21:10:02.340Z,53.95
2018-09-11T21:12:30.908Z,54.27
2018-09-11T21:14:58.770Z,54.32
2018-09-11T21:17:26.742Z,55.09
2018-09-11T21:19:54.693Z,55.78
2018-09-11T21:22:22.573Z,56.18
2018-09-11T21:24:50.571Z,56.22
2018-09-11T21:27:18.511Z,56.69
2018-09-11T21:29:46.745Z,56.99
2018-09-11T21:32:14.661Z,56.93
2018-09-11T21:34:42.848Z,56.83
2018-09-11T21:37:10.771Z,57.04
2018-09-11T21:39:39.494Z,56.67
2018-09-11T21:42:07.541Z,56.21
2018-09-11T21:44:35.433Z,55.93
2018-09-11T21:47:03.426Z,56.74
2018-09-11T21:49:31.460Z,57.52
2018-09-11T21:51:59.600Z,57.37
2018-09-11T21:54:27.501Z,56.93
2018-09-11T21:56:55.473Z,57.53
2018-09-11T21:59:23.482Z,56.95
2018-09-11T22:01:52.000Z,57.10
2018-09-11T22:04:20.883Z,56.71
2018-09-11T22:06:48.854Z,56.93
2018-09-11T22:09:16.809Z,56.72
2018-09-11T22:11:44.743Z,57.09
2018-09-11T22:14:12.684Z,56.58
2018-09-11T22:16:40.551Z,56.98
2018-09-11T22:19:08.546Z,57.38
2018-09-11T22:21:37.206Z,57.55
2018-09-11T22:24:05.328Z,57.69
2018-09-11T22:26:33.613Z,57.89
2018-09-11T22:29:01.551Z,58.35
2018-09-11T22:31:29.734Z,58.41
2018-09-11T22:33:57.585Z,58.84
2018-09-11T22:36:25.770Z,58.98
2018-09-11T22:38:53.827Z,59.49
2018-09-11T22:41:21.780Z,59.39
2018-09-11T22:43:50.156Z,59.93
2018-09-11T22:46:18.284Z,61.98
2018-09-11T22:48:46.196Z,63.33
2018-09-11T22:51:14.118Z,63.62
2018-09-11T22:53:42.266Z,64.62
2018-09-11T22:56:10.196Z,64.75
2018-09-11T22:58:38.059Z,63.12
2018-09-11T23:01:06.051Z,63.11
2018-09-11T23:03:34.026Z,63.30
2018-09-11T23:06:02.098Z,64.45
2018-09-11T23:08:30.088Z,62.86
2018-09-11T23:10:58.026Z,61.92
2018-09-11T23:13:25.955Z,63.18
2018-09-11T23:15:53.846Z,63.12
2018-09-11T23:18:21.853Z,63.69
2018-09-11T23:20:49.846Z,64.18
2018-09-11T23:23:17.829Z,64.86
2018-09-11T23:25:45.955Z,64.84
2018-09-11T23:28:13.867Z,64.94
2018-09-11T23:30:41.863Z,65.68
2018-09-11T23:33:09.884Z,65.62
2018-09-11T23:35:37.898Z,65.53
2018-09-11T23:38:05.937Z,66.41
2018-09-11T23:40:33.968Z,66.72
2018-09-11T23:43:01.865Z,66.75
2018-09-11T23:45:29.846Z,67.35
2018-09-11T23:47:57.837Z,66.99
2018-09-11T23:50:25.757Z,67.51
2018-09-11T23:52:53.795Z,68.05
2018-09-11T23:55:21.843Z,66.66
2018-09-11T23:57:49.872Z,65.87
